PWSweather.com
Personal Weather Stations
Station Observations
WATERF01
WaterfordIE

WaterfordIE

Lat: 52.2412507, Lon: -7.1414691

Elevation: 65

Station Type: Davis Vantage Vue

Latest ConditionsUpdated 1:50:01 PM GMT Friday, Aug 1, 2014
Currently Today's Max Today's Min Today's Average
Temperature 64.3°F17.9°C 66.1°F18.9°C 56.8°F13.8°C 60.6°F15.9°C
Dew Point 58.7°F14.8°C 58.7°F14.8°C 54.3°F12.4°C 56.6°F13.7°C
Winds 3.9 mph W6.3 kmh W 7.0 mph NW11.3 kmh NW - 1.9 mph 3.1 kmh
Wind Gusts 5.5 mph8.9 kmh 13.8 mph22.2 kmh - -
Humidity 82% 95% 72% 87%
Pressure 29.64 in1003.7 mb 29.77 in1008.1 mb 29.64 in1003.7 mb -
Precipitation - 0.16 in4.1 mm - -
Hour Temp Dew Point Humidity Winds Wind Gusts Pressure Precip Precip Rate Daily Precip Total
01:50 PM 64.3°F17.9°C 58.7°F14.8°C 82% 3.9 mph W6.3 kmh W 5.5 mph8.9 kmh 29.64 in1003.7 mb 0.00 in0.0 mm 0.00 in/hr0.0 mm/hr 0.16 in4.1 mm
01:40 PM 64.9°F18.3°C 58.3°F14.6°C 79% 2.5 mph WSW4.0 kmh WSW 5.5 mph8.9 kmh 29.64 in1003.7 mb 0.00 in0.0 mm 0.00 in/hr0.0 mm/hr 0.16 in4.1 mm
01:30 PM 65.1°F18.4°C 57.4°F14.1°C 76% 1.5 mph SW2.4 kmh SW 4.1 mph6.6 kmh 29.64 in1003.7 mb 0.00 in0.0 mm 0.00 in/hr0.0 mm/hr 0.16 in4.1 mm
01:20 PM 65.5°F18.6°C 57.7°F14.3°C 76% 3.2 mph SSW5.1 kmh SSW 5.5 mph8.9 kmh 29.64 in1003.7 mb 0.00 in0.0 mm 0.00 in/hr0.0 mm/hr 0.16 in4.1 mm
01:10 PM 65.5°F18.6°C 58.1°F14.5°C 77% 4.2 mph SW6.8 kmh SW 8.2 mph13.2 kmh 29.64 in1003.7 mb 0.00 in0.0 mm 0.00 in/hr0.0 mm/hr 0.16 in4.1 mm
01:00 PM 65.3°F18.5°C 58.3°F14.6°C 78% 2.4 mph W3.9 kmh W 6.9 mph11.1 kmh 29.64 in1003.7 mb 0.00 in0.0 mm 0.00 in/hr0.0 mm/hr 0.16 in4.1 mm
12:50 PM 65.1°F18.4°C 58.4°F14.7°C 79% 3.8 mph WSW6.1 kmh WSW 6.9 mph11.1 kmh 29.64 in1003.7 mb 0.00 in0.0 mm 0.00 in/hr0.0 mm/hr 0.16 in4.1 mm
12:40 PM 65.0°F18.3°C 58.3°F14.6°C 79% 2.2 mph SSW3.5 kmh SSW 8.3 mph13.4 kmh 29.65 in1004.1 mb 0.00 in0.0 mm 0.00 in/hr0.0 mm/hr 0.16 in4.1 mm
12:30 PM 64.5°F18.1°C 57.8°F14.3°C 79% 3.4 mph E5.5 kmh E 8.3 mph13.4 kmh 29.65 in1004.1 mb 0.00 in0.0 mm 0.00 in/hr0.0 mm/hr 0.16 in4.1 mm
12:20 PM 64.2°F17.9°C 57.9°F14.4°C 80% 1.0 mph W1.6 kmh W 8.3 mph13.4 kmh 29.65 in1004.1 mb 0.00 in0.0 mm 0.00 in/hr0.0 mm/hr 0.16 in4.1 mm
12:10 PM 64.0°F17.8°C 57.4°F14.1°C 79% 3.4 mph SW5.5 kmh SW 5.5 mph8.9 kmh 29.65 in1004.1 mb 0.00 in0.0 mm 0.00 in/hr0.0 mm/hr 0.16 in4.1 mm
12:00 PM 64.1°F17.8°C 57.1°F13.9°C 78% 2.1 mph W3.4 kmh W 5.5 mph8.9 kmh 29.65 in1004.1 mb 0.00 in0.0 mm 0.00 in/hr0.0 mm/hr 0.16 in4.1 mm
11:50 AM 64.9°F18.3°C 57.5°F14.2°C 77% 1.8 mph WSW2.9 kmh WSW 5.5 mph8.9 kmh 29.65 in1004.1 mb 0.00 in0.0 mm 0.00 in/hr0.0 mm/hr 0.16 in4.1 mm
11:40 AM 65.4°F18.6°C 57.6°F14.2°C 76% 1.1 mph WSW1.8 kmh WSW 6.9 mph11.1 kmh 29.65 in1004.1 mb 0.00 in0.0 mm 0.00 in/hr0.0 mm/hr 0.16 in4.1 mm
11:30 AM 65.6°F18.7°C 57.8°F14.3°C 76% Calm Calm -- 29.65 in1004.1 mb 0.00 in0.0 mm 0.00 in/hr0.0 mm/hr 0.16 in4.1 mm
11:20 AM 65.9°F18.8°C 57.8°F14.3°C 75% 3.2 mph WSW5.1 kmh WSW 5.5 mph8.9 kmh 29.65 in1004.1 mb 0.00 in0.0 mm 0.00 in/hr0.0 mm/hr 0.16 in4.1 mm
11:10 AM 66.0°F18.9°C 56.7°F13.7°C 72% 0.5 mph W0.8 kmh W 2.8 mph4.5 kmh 29.65 in1004.1 mb 0.00 in0.0 mm 0.00 in/hr0.0 mm/hr 0.16 in4.1 mm
11:00 AM 66.1°F18.9°C 57.2°F14.0°C 73% Calm Calm -- 29.65 in1004.1 mb 0.00 in0.0 mm 0.00 in/hr0.0 mm/hr 0.16 in4.1 mm
10:50 AM 65.2°F18.4°C 57.5°F14.2°C 76% 3.5 mph WSW5.6 kmh WSW 5.5 mph8.9 kmh 29.66 in1004.4 mb 0.00 in0.0 mm 0.00 in/hr0.0 mm/hr 0.16 in4.1 mm
10:40 AM 64.1°F17.8°C 56.4°F13.6°C 76% 0.6 mph WNW1.0 kmh WNW 5.5 mph8.9 kmh 29.65 in1004.1 mb 0.00 in0.0 mm 0.00 in/hr0.0 mm/hr 0.16 in4.1 mm
10:30 AM 63.3°F17.4°C 55.6°F13.1°C 76% 1.6 mph NW2.6 kmh NW 4.1 mph6.6 kmh 29.66 in1004.4 mb 0.00 in0.0 mm 0.00 in/hr0.0 mm/hr 0.16 in4.1 mm
10:20 AM 63.1°F17.3°C 55.8°F13.2°C 77% 3.0 mph NNW4.8 kmh NNW 6.9 mph11.1 kmh 29.66 in1004.4 mb 0.00 in0.0 mm 0.00 in/hr0.0 mm/hr 0.16 in4.1 mm
10:10 AM 62.9°F17.2°C 56.3°F13.5°C 79% 2.0 mph NW3.2 kmh NW 4.1 mph6.6 kmh 29.66 in1004.4 mb 0.00 in0.0 mm 0.00 in/hr0.0 mm/hr 0.16 in4.1 mm
10:00 AM 62.9°F17.2°C 56.3°F13.5°C 79% 4.5 mph NW7.2 kmh NW 5.5 mph8.9 kmh 29.66 in1004.4 mb 0.00 in0.0 mm 0.00 in/hr0.0 mm/hr 0.16 in4.1 mm
09:50 AM 62.6°F17.0°C 56.7°F13.7°C 81% 3.7 mph NW6.0 kmh NW 5.5 mph8.9 kmh 29.66 in1004.4 mb 0.00 in0.0 mm 0.00 in/hr0.0 mm/hr 0.16 in4.1 mm
09:40 AM 61.7°F16.5°C 56.5°F13.6°C 83% 3.5 mph NW5.6 kmh NW 5.5 mph8.9 kmh 29.66 in1004.4 mb 0.00 in0.0 mm 0.00 in/hr0.0 mm/hr 0.16 in4.1 mm
09:30 AM 61.2°F16.2°C 56.3°F13.5°C 84% 3.4 mph NW5.5 kmh NW 5.5 mph8.9 kmh 29.67 in1004.7 mb 0.00 in0.0 mm 0.00 in/hr0.0 mm/hr 0.16 in4.1 mm
09:20 AM 60.3°F15.7°C 56.1°F13.4°C 86% 2.0 mph NNW3.2 kmh NNW 5.5 mph8.9 kmh 29.67 in1004.7 mb 0.00 in0.0 mm 0.00 in/hr0.0 mm/hr 0.16 in4.1 mm
09:10 AM 59.8°F15.4°C 55.6°F13.1°C 86% 2.9 mph NW4.7 kmh NW 5.5 mph8.9 kmh 29.67 in1004.7 mb 0.00 in0.0 mm 0.00 in/hr0.0 mm/hr 0.16 in4.1 mm
09:00 AM 59.7°F15.4°C 55.5°F13.1°C 86% 5.6 mph NW9.0 kmh NW 8.3 mph13.4 kmh 29.67 in1004.7 mb 0.00 in0.0 mm 0.00 in/hr0.0 mm/hr 0.16 in4.1 mm
08:50 AM 59.7°F15.4°C 56.1°F13.4°C 88% 4.9 mph WNW7.9 kmh WNW 6.9 mph11.1 kmh 29.67 in1004.7 mb 0.00 in0.0 mm 0.00 in/hr0.0 mm/hr 0.16 in4.1 mm
08:40 AM 59.4°F15.2°C 56.2°F13.4°C 89% 2.7 mph N4.3 kmh N 5.5 mph8.9 kmh 29.67 in1004.7 mb 0.00 in0.0 mm 0.00 in/hr0.0 mm/hr 0.16 in4.1 mm
08:30 AM 58.8°F14.9°C 55.6°F13.1°C 89% 3.9 mph NW6.3 kmh NW 6.9 mph11.1 kmh 29.67 in1004.7 mb 0.00 in0.0 mm 0.00 in/hr0.0 mm/hr 0.16 in4.1 mm
08:20 AM 58.8°F14.9°C 56.2°F13.4°C 91% 4.4 mph NW7.1 kmh NW 5.5 mph8.9 kmh 29.67 in1004.7 mb 0.00 in0.0 mm 0.00 in/hr0.0 mm/hr 0.16 in4.1 mm
08:10 AM 58.7°F14.8°C 56.4°F13.6°C 92% 2.8 mph NNW4.5 kmh NNW 5.5 mph8.9 kmh 29.67 in1004.7 mb 0.00 in0.0 mm 0.00 in/hr0.0 mm/hr 0.16 in4.1 mm
08:00 AM 58.2°F14.6°C 56.2°F13.4°C 93% 1.7 mph NNW2.7 kmh NNW 2.8 mph4.5 kmh 29.66 in1004.4 mb 0.00 in0.0 mm 0.00 in/hr0.0 mm/hr 0.16 in4.1 mm
07:50 AM 57.6°F14.2°C 55.6°F13.1°C 93% 5.1 mph W8.2 kmh W 8.3 mph13.4 kmh 29.66 in1004.4 mb 0.00 in0.0 mm 0.00 in/hr0.0 mm/hr 0.16 in4.1 mm
07:40 AM 57.5°F14.2°C 55.5°F13.1°C 93% 3.7 mph WNW6.0 kmh WNW 4.1 mph6.6 kmh 29.67 in1004.7 mb 0.00 in0.0 mm 0.00 in/hr0.0 mm/hr 0.16 in4.1 mm
07:30 AM 57.2°F14.0°C 55.2°F12.9°C 93% 5.2 mph NW8.4 kmh NW 13.8 mph22.2 kmh 29.67 in1004.7 mb 0.00 in0.0 mm 0.00 in/hr0.0 mm/hr 0.16 in4.1 mm
07:20 AM 56.8°F13.8°C 54.8°F12.7°C 93% 4.4 mph NW7.1 kmh NW 8.3 mph13.4 kmh 29.66 in1004.4 mb 0.00 in0.0 mm 0.00 in/hr0.0 mm/hr 0.16 in4.1 mm
07:10 AM 57.1°F13.9°C 55.1°F12.8°C 93% 6.7 mph NW10.8 kmh NW 10.6 mph17.1 kmh 29.66 in1004.4 mb 0.00 in0.0 mm 0.00 in/hr0.0 mm/hr 0.16 in4.1 mm
07:00 AM 57.8°F14.3°C 56.1°F13.4°C 94% 4.7 mph NW7.6 kmh NW 5.5 mph8.9 kmh 29.66 in1004.4 mb 0.00 in0.0 mm 0.00 in/hr0.0 mm/hr 0.16 in4.1 mm
06:50 AM 58.6°F14.8°C 56.6°F13.7°C 93% 7.0 mph NW11.3 kmh NW 8.3 mph13.4 kmh 29.66 in1004.4 mb 0.00 in0.0 mm 0.00 in/hr0.0 mm/hr 0.16 in4.1 mm
06:40 AM 59.5°F15.3°C 57.8°F14.3°C 94% 3.2 mph NW5.1 kmh NW 5.5 mph8.9 kmh 29.66 in1004.4 mb 0.00 in0.0 mm 0.00 in/hr0.0 mm/hr 0.16 in4.1 mm
06:30 AM 59.5°F15.3°C 57.8°F14.3°C 94% 2.7 mph WNW4.3 kmh WNW 5.5 mph8.9 kmh 29.66 in1004.4 mb 0.00 in0.0 mm 0.00 in/hr0.0 mm/hr 0.16 in4.1 mm
06:20 AM 59.4°F15.2°C 57.7°F14.3°C 94% 1.1 mph WSW1.8 kmh WSW 2.8 mph4.5 kmh 29.66 in1004.4 mb 0.00 in0.0 mm 0.00 in/hr0.0 mm/hr 0.16 in4.1 mm
06:10 AM 59.3°F15.2°C 57.9°F14.4°C 95% 1.2 mph S1.9 kmh S 2.8 mph4.5 kmh 29.66 in1004.4 mb 0.00 in0.0 mm 0.00 in/hr0.0 mm/hr 0.16 in4.1 mm
06:00 AM 59.4°F15.2°C 58.0°F14.4°C 95% 2.4 mph SW3.9 kmh SW 5.5 mph8.9 kmh 29.66 in1004.4 mb 0.00 in0.0 mm 0.00 in/hr0.0 mm/hr 0.16 in4.1 mm
05:50 AM 59.4°F15.2°C 58.0°F14.4°C 95% 2.4 mph WSW3.9 kmh WSW 5.5 mph8.9 kmh 29.66 in1004.4 mb 0.00 in0.0 mm 0.00 in/hr0.0 mm/hr 0.16 in4.1 mm
05:40 AM 59.5°F15.3°C 58.1°F14.5°C 95% 0.2 mph SSW0.3 kmh SSW -- 29.66 in1004.4 mb 0.01 in0.3 mm 0.06 in/hr1.5 mm/hr 0.16 in4.1 mm
05:30 AM 59.4°F15.2°C 58.0°F14.4°C 95% Calm Calm -- 29.66 in1004.4 mb 0.00 in0.0 mm 0.00 in/hr0.0 mm/hr 0.15 in3.8 mm
05:20 AM 59.3°F15.2°C 57.8°F14.3°C 95% Calm Calm -- 29.66 in1004.4 mb 0.00 in0.0 mm 0.00 in/hr0.0 mm/hr 0.15 in3.8 mm
05:10 AM 59.2°F15.1°C 57.8°F14.3°C 95% 0.2 mph S0.3 kmh S -- 29.67 in1004.7 mb 0.01 in0.3 mm 0.06 in/hr1.5 mm/hr 0.15 in3.8 mm
05:00 AM 59.1°F15.1°C 57.4°F14.1°C 94% 1.5 mph SSW2.4 kmh SSW 5.5 mph8.9 kmh 29.67 in1004.7 mb 0.00 in0.0 mm 0.00 in/hr0.0 mm/hr 0.14 in3.6 mm
04:50 AM 59.0°F15.0°C 57.3°F14.1°C 94% 0.2 mph SSE0.3 kmh SSE -- 29.67 in1004.7 mb 0.01 in0.3 mm 0.06 in/hr1.5 mm/hr 0.14 in3.6 mm
04:40 AM 58.9°F14.9°C 57.2°F14.0°C 94% 3.5 mph S5.6 kmh S 5.5 mph8.9 kmh 29.67 in1004.7 mb 0.01 in0.3 mm 0.06 in/hr1.5 mm/hr 0.13 in3.3 mm
04:30 AM 58.8°F14.9°C 57.1°F13.9°C 94% Calm Calm -- 29.68 in1005.1 mb 0.01 in0.3 mm 0.06 in/hr1.5 mm/hr 0.12 in3.0 mm
04:20 AM 58.8°F14.9°C 57.1°F13.9°C 94% 1.2 mph SSW1.9 kmh SSW 4.0 mph6.4 kmh 29.68 in1005.1 mb 0.01 in0.3 mm 0.06 in/hr1.5 mm/hr 0.11 in2.8 mm
04:10 AM 58.8°F14.9°C 56.8°F13.8°C 93% Calm Calm -- 29.68 in1005.1 mb 0.01 in0.3 mm 0.06 in/hr1.5 mm/hr 0.10 in2.5 mm
04:00 AM 58.6°F14.8°C 56.6°F13.7°C 93% 1.4 mph SSW2.3 kmh SSW 4.1 mph6.6 kmh 29.69 in1005.4 mb 0.01 in0.3 mm 0.01 in/hr0.3 mm/hr 0.09 in2.3 mm
03:50 AM 58.4°F14.7°C 56.4°F13.6°C 93% 0.1 mph SSW0.2 kmh SSW 2.8 mph4.5 kmh 29.69 in1005.4 mb 0.00 in0.0 mm 0.00 in/hr0.0 mm/hr 0.08 in2.0 mm
03:40 AM 58.2°F14.6°C 56.2°F13.4°C 93% Calm Calm -- 29.70 in1005.8 mb 0.00 in0.0 mm 0.00 in/hr0.0 mm/hr 0.08 in2.0 mm
03:30 AM 58.2°F14.6°C 56.2°F13.4°C 93% Calm Calm -- 29.70 in1005.8 mb 0.00 in0.0 mm 0.00 in/hr0.0 mm/hr 0.08 in2.0 mm
03:20 AM 58.4°F14.7°C 56.4°F13.6°C 93% Calm Calm -- 29.70 in1005.8 mb 0.00 in0.0 mm 0.00 in/hr0.0 mm/hr 0.08 in2.0 mm
03:10 AM 58.6°F14.8°C 56.6°F13.7°C 93% 0.9 mph SW1.4 kmh SW 4.1 mph6.6 kmh 29.71 in1006.1 mb 0.00 in0.0 mm 0.00 in/hr0.0 mm/hr 0.08 in2.0 mm
03:00 AM 58.8°F14.9°C 56.8°F13.8°C 93% Calm Calm -- 29.71 in1006.1 mb 0.01 in0.3 mm 0.01 in/hr0.3 mm/hr 0.08 in2.0 mm
02:50 AM 58.8°F14.9°C 56.8°F13.8°C 93% 0.9 mph SE1.4 kmh SE 5.4 mph8.7 kmh 29.72 in1006.4 mb 0.00 in0.0 mm 0.00 in/hr0.0 mm/hr 0.07 in1.8 mm
02:40 AM 58.8°F14.9°C 56.5°F13.6°C 92% Calm Calm -- 29.72 in1006.4 mb 0.01 in0.3 mm 0.06 in/hr1.5 mm/hr 0.07 in1.8 mm
02:30 AM 58.7°F14.8°C 56.4°F13.6°C 92% Calm Calm -- 29.72 in1006.4 mb 0.01 in0.3 mm 0.06 in/hr1.5 mm/hr 0.06 in1.5 mm
02:20 AM 58.7°F14.8°C 56.1°F13.4°C 91% Calm Calm -- 29.73 in1006.8 mb 0.01 in0.3 mm 0.06 in/hr1.5 mm/hr 0.05 in1.3 mm
02:10 AM 58.8°F14.9°C 56.2°F13.4°C 91% Calm Calm -- 29.73 in1006.8 mb 0.01 in0.3 mm 0.06 in/hr1.5 mm/hr 0.04 in1.0 mm
02:00 AM 58.8°F14.9°C 56.2°F13.4°C 91% Calm Calm -- 29.73 in1006.8 mb 0.01 in0.3 mm 0.01 in/hr0.3 mm/hr 0.04 in1.0 mm
01:50 AM 59.0°F15.0°C 56.1°F13.4°C 90% Calm Calm -- 29.74 in1007.1 mb 0.01 in0.3 mm 0.06 in/hr1.5 mm/hr 0.03 in0.8 mm
01:40 AM 59.2°F15.1°C 56.3°F13.5°C 90% Calm Calm -- 29.74 in1007.1 mb 0.01 in0.3 mm 0.06 in/hr1.5 mm/hr 0.02 in0.5 mm
01:30 AM 59.2°F15.1°C 56.0°F13.3°C 89% Calm Calm -- 29.74 in1007.1 mb 0.00 in0.0 mm 0.00 in/hr0.0 mm/hr 0.01 in0.3 mm
01:20 AM 58.8°F14.9°C 55.6°F13.1°C 89% Calm Calm -- 29.75 in1007.5 mb 0.01 in0.3 mm 0.06 in/hr1.5 mm/hr 0.01 in0.3 mm
01:10 AM 58.4°F14.7°C 54.9°F12.7°C 88% Calm Calm -- 29.75 in1007.5 mb 0.00 in0.0 mm 0.00 in/hr0.0 mm/hr 0.00 in0.0 mm
01:00 AM 58.3°F14.6°C 54.8°F12.7°C 88% Calm Calm -- 29.75 in1007.5 mb 0.00 in0.0 mm 0.00 in/hr0.0 mm/hr 0.00 in0.0 mm
12:50 AM 58.2°F14.6°C 54.3°F12.4°C 87% Calm Calm -- 29.76 in1007.8 mb 0.00 in0.0 mm 0.00 in/hr0.0 mm/hr 0.00 in0.0 mm
12:40 AM 58.3°F14.6°C 54.4°F12.4°C 87% Calm Calm -- 29.76 in1007.8 mb 0.00 in0.0 mm 0.00 in/hr0.0 mm/hr 0.00 in0.0 mm
12:30 AM 58.4°F14.7°C 54.5°F12.5°C 87% Calm Calm -- 29.76 in1007.8 mb 0.00 in0.0 mm 0.00 in/hr0.0 mm/hr 0.00 in0.0 mm
12:20 AM 58.7°F14.8°C 54.8°F12.7°C 87% Calm Calm -- 29.77 in1008.1 mb 0.00 in0.0 mm 0.00 in/hr0.0 mm/hr 0.00 in0.0 mm
12:10 AM 58.8°F14.9°C 54.6°F12.6°C 86% Calm Calm -- 29.77 in1008.1 mb 0.00 in0.0 mm 0.00 in/hr0.0 mm/hr 0.00 in0.0 mm
12:00 AM 59.1°F15.1°C 54.6°F12.6°C 85% Calm Calm -- 29.77 in1008.1 mb 0.00 in0.0 mm 0.00 in/hr0.0 mm/hr 0.00 in0.0 mm